createdAt,value
2019-04-28T00:00:42.324Z,11.60
2019-04-28T00:03:12.321Z,11.60
2019-04-28T00:05:42.447Z,11.60
2019-04-28T00:08:12.944Z,11.50
2019-04-28T00:10:43.488Z,11.50
2019-04-28T00:13:13.897Z,11.60
2019-04-28T00:15:44.071Z,11.60
2019-04-28T00:18:15.478Z,11.50
2019-04-28T00:21:03.762Z,11.50
2019-04-28T00:23:51.782Z,11.40
2019-04-28T00:26:32.849Z,11.40
2019-04-28T00:29:02.877Z,11.30
2019-04-28T00:31:33.425Z,11.20
2019-04-28T00:34:03.478Z,11.30
2019-04-28T00:36:33.623Z,11.20
2019-04-28T00:39:05.112Z,11.20
2019-04-28T00:41:35.307Z,11.10
2019-04-28T00:44:05.318Z,11.10
2019-04-28T00:46:37.248Z,11.20
2019-04-28T00:49:08.539Z,11.20
2019-04-28T00:51:38.556Z,11.10
2019-04-28T00:54:08.703Z,11.10
2019-04-28T00:56:38.939Z,11.20
2019-04-28T00:59:09.148Z,11.10
2019-04-28T01:01:42.544Z,11.10
2019-04-28T01:04:12.968Z,11.10
2019-04-28T01:06:43.172Z,11.20
2019-04-28T01:09:13.933Z,11.20
2019-04-28T01:11:44.031Z,11.10
2019-04-28T01:14:14.159Z,11.00
2019-04-28T01:16:49.834Z,11.00
2019-04-28T01:19:25.250Z,11.10
2019-04-28T01:22:00.369Z,11.00
2019-04-28T01:24:30.530Z,10.90
2019-04-28T01:27:00.890Z,10.90
2019-04-28T01:29:30.966Z,11.00
2019-04-28T01:32:05.415Z,10.90
2019-04-28T01:34:35.808Z,10.80
2019-04-28T01:37:06.086Z,10.80
2019-04-28T01:39:36.060Z,10.70
2019-04-28T01:42:06.317Z,10.70
2019-04-28T01:44:36.942Z,10.80
2019-04-28T01:47:06.999Z,10.80
2019-04-28T01:49:37.370Z,10.90
2019-04-28T01:52:07.575Z,10.90
2019-04-28T01:54:37.919Z,10.90
2019-04-28T01:57:09.978Z,10.90
2019-04-28T01:59:40.462Z,10.90
2019-04-28T02:02:10.597Z,10.80
2019-04-28T02:04:40.786Z,10.80
2019-04-28T02:07:11.207Z,10.80
2019-04-28T02:09:41.406Z,10.80
2019-04-28T02:12:11.564Z,10.80
2019-04-28T02:14:41.560Z,10.70
2019-04-28T02:17:11.609Z,10.70
2019-04-28T02:19:41.601Z,10.70
2019-04-28T02:22:20.189Z,10.70
2019-04-28T02:24:51.478Z,10.70
2019-04-28T02:27:21.761Z,10.80
2019-04-28T02:29:51.926Z,10.70
2019-04-28T02:32:24.392Z,10.70
2019-04-28T02:34:53.922Z,10.70
2019-04-28T02:37:24.142Z,10.70
2019-04-28T02:39:54.250Z,10.60
2019-04-28T02:42:24.236Z,10.70
2019-04-28T02:44:54.421Z,10.70
2019-04-28T02:47:24.813Z,10.60
2019-04-28T02:50:00.921Z,10.60
2019-04-28T02:52:51.618Z,10.60
2019-04-28T02:55:21.296Z,10.60
2019-04-28T02:57:51.908Z,10.70
2019-04-28T03:00:22.710Z,10.60
2019-04-28T03:02:52.895Z,10.50
2019-04-28T03:05:23.342Z,10.60
2019-04-28T03:07:53.753Z,10.60
2019-04-28T03:10:24.069Z,10.60
2019-04-28T03:12:54.503Z,10.70
2019-04-28T03:15:24.741Z,10.60
2019-04-28T03:17:55.129Z,10.60
2019-04-28T03:20:25.252Z,10.70
2019-04-28T03:22:55.646Z,10.60
2019-04-28T03:25:30.252Z,10.60
2019-04-28T03:28:00.872Z,10.60
2019-04-28T03:30:43.346Z,10.60
2019-04-28T03:33:19.049Z,10.60
2019-04-28T03:35:44.927Z,10.70
2019-04-28T03:38:14.786Z,10.70
2019-04-28T03:40:44.797Z,10.70
2019-04-28T03:43:15.021Z,10.60
2019-04-28T03:45:52.480Z,10.60
2019-04-28T03:48:22.599Z,10.70
2019-04-28T03:50:52.714Z,10.70
2019-04-28T03:53:22.909Z,10.80
2019-04-28T03:55:53.287Z,10.70
2019-04-28T03:58:24.272Z,10.80
2019-04-28T04:00:54.781Z,10.70
2019-04-28T04:03:24.999Z,10.70
2019-04-28T04:05:55.198Z,10.60
2019-04-28T04:08:25.653Z,10.60
2019-04-28T04:11:15.633Z,10.60
2019-04-28T04:13:47.572Z,10.60
2019-04-28T04:16:34.411Z,10.70
2019-04-28T04:19:06.256Z,10.70
2019-04-28T04:21:36.372Z,10.60
2019-04-28T04:24:06.417Z,10.60
2019-04-28T04:26:36.727Z,10.60
2019-04-28T04:29:06.999Z,10.60
2019-04-28T04:31:37.185Z,10.60
2019-04-28T04:34:07.398Z,10.60
2019-04-28T04:36:37.599Z,10.60
2019-04-28T04:39:10.534Z,10.60
2019-04-28T04:41:42.910Z,10.60
2019-04-28T04:44:11.934Z,10.60
2019-04-28T04:46:42.307Z,10.60
2019-04-28T04:49:13.634Z,10.60
2019-04-28T04:51:45.853Z,10.50
2019-04-28T04:54:16.314Z,10.60
2019-04-28T04:56:46.436Z,10.50
2019-04-28T04:59:16.375Z,10.50
2019-04-28T05:01:50.154Z,10.50
2019-04-28T05:04:24.424Z,10.60
2019-04-28T05:06:54.652Z,10.60
2019-04-28T05:09:25.093Z,10.70
2019-04-28T05:11:55.303Z,10.70
2019-04-28T05:14:25.537Z,10.70
2019-04-28T05:16:55.426Z,10.70
2019-04-28T05:19:25.788Z,10.80
2019-04-28T05:21:56.011Z,10.80
2019-04-28T05:24:37.063Z,10.80
2019-04-28T05:27:07.298Z,10.70
2019-04-28T05:29:39.436Z,10.80
2019-04-28T05:32:10.812Z,10.80
2019-04-28T05:34:46.824Z,10.80
2019-04-28T05:37:13.215Z,10.80
2019-04-28T05:39:43.473Z,10.90
2019-04-28T05:42:13.793Z,10.80
2019-04-28T05:44:43.979Z,10.70
2019-04-28T05:47:14.212Z,10.60
2019-04-28T05:50:03.243Z,10.70
2019-04-28T05:52:51.917Z,10.70
2019-04-28T05:55:26.635Z,10.80
2019-04-28T05:58:04.237Z,10.70
2019-04-28T06:00:36.192Z,10.70
2019-04-28T06:03:10.610Z,10.70
2019-04-28T06:05:40.739Z,10.80
2019-04-28T06:08:15.579Z,10.80
2019-04-28T06:10:45.810Z,10.90
2019-04-28T06:13:15.827Z,10.90
2019-04-28T06:15:46.434Z,10.80
2019-04-28T06:18:16.591Z,11.00
2019-04-28T06:20:59.256Z,11.00
2019-04-28T06:23:29.499Z,11.10
2019-04-28T06:25:59.953Z,11.10
2019-04-28T06:28:30.252Z,11.10
2019-04-28T06:31:00.479Z,11.20
2019-04-28T06:33:30.718Z,11.10
2019-04-28T06:36:01.009Z,11.10
2019-04-28T06:38:31.152Z,11.20
2019-04-28T06:41:01.398Z,11.20
2019-04-28T06:43:31.613Z,11.20
2019-04-28T06:46:01.841Z,11.30
2019-04-28T06:48:32.190Z,11.30
2019-04-28T06:51:02.181Z,11.40
2019-04-28T06:53:32.250Z,11.40
2019-04-28T06:56:02.377Z,11.40
2019-04-28T06:58:33.455Z,11.30
2019-04-28T07:01:03.642Z,11.30
2019-04-28T07:03:33.597Z,11.40
2019-04-28T07:06:03.745Z,11.40
2019-04-28T07:08:33.809Z,11.40
2019-04-28T07:11:03.946Z,11.40
2019-04-28T07:13:33.913Z,11.60
2019-04-28T07:16:03.927Z,11.70
2019-04-28T07:18:33.951Z,11.90
2019-04-28T07:21:05.878Z,12.00
2019-04-28T07:23:37.465Z,12.00
2019-04-28T07:26:07.489Z,12.00
2019-04-28T07:28:37.555Z,11.80
2019-04-28T07:31:07.605Z,11.80
2019-04-28T07:33:37.678Z,11.90
2019-04-28T07:36:07.574Z,11.90
2019-04-28T07:38:37.657Z,11.80
2019-04-28T07:41:07.683Z,11.80
2019-04-28T07:43:38.957Z,11.90
2019-04-28T07:46:09.308Z,11.90
2019-04-28T07:48:39.350Z,11.90
2019-04-28T07:51:09.408Z,12.00
2019-04-28T07:53:55.912Z,12.10
2019-04-28T07:56:25.877Z,12.20
2019-04-28T07:58:55.905Z,12.20
2019-04-28T08:01:26.002Z,12.30
2019-04-28T08:03:57.548Z,12.40
2019-04-28T08:06:27.657Z,12.40
2019-04-28T08:08:57.744Z,12.40
2019-04-28T08:11:27.590Z,12.50
2019-04-28T08:13:57.672Z,12.70
2019-04-28T08:16:27.937Z,12.70
2019-04-28T08:18:58.364Z,12.80
2019-04-28T08:21:28.480Z,12.90
2019-04-28T08:23:58.572Z,12.90
2019-04-28T08:26:28.852Z,12.90
2019-04-28T08:28:58.954Z,12.80
2019-04-28T08:31:33.407Z,12.90
2019-04-28T08:34:05.126Z,13.00
2019-04-28T08:36:35.230Z,13.00
2019-04-28T08:39:07.002Z,12.90
2019-04-28T08:41:37.128Z,12.90
2019-04-28T08:44:07.385Z,12.80
2019-04-28T08:46:38.989Z,12.70
2019-04-28T08:49:09.343Z,12.50
2019-04-28T08:51:39.452Z,12.50
2019-04-28T08:54:09.481Z,12.60
2019-04-28T08:56:41.476Z,12.50
2019-04-28T08:59:11.676Z,12.50
2019-04-28T09:01:41.878Z,12.60
2019-04-28T09:04:15.582Z,12.60
2019-04-28T09:06:43.772Z,12.60
2019-04-28T09:09:15.578Z,12.60
2019-04-28T09:11:45.760Z,12.60
2019-04-28T09:14:16.092Z,12.60
2019-04-28T09:16:46.026Z,12.50
2019-04-28T09:19:16.150Z,12.40
2019-04-28T09:21:46.181Z,12.50
2019-04-28T09:24:16.325Z,12.40
2019-04-28T09:26:46.282Z,12.40
2019-04-28T09:29:16.307Z,12.40
2019-04-28T09:31:46.533Z,12.40
2019-04-28T09:34:27.808Z,12.40
2019-04-28T09:36:48.317Z,12.40
2019-04-28T09:39:20.093Z,12.40
2019-04-28T09:42:07.868Z,12.50
2019-04-28T09:44:38.017Z,12.50
2019-04-28T09:47:08.268Z,12.60
2019-04-28T09:49:38.589Z,12.60
2019-04-28T09:52:09.233Z,12.60
2019-04-28T09:54:39.879Z,12.50
2019-04-28T09:57:10.383Z,12.50
2019-04-28T09:59:40.518Z,12.60
2019-04-28T10:02:10.708Z,12.50
2019-04-28T10:04:41.930Z,12.50
2019-04-28T10:07:12.372Z,12.40
2019-04-28T10:09:42.905Z,12.30
2019-04-28T10:12:26.305Z,12.30
2019-04-28T10:14:45.138Z,12.30
2019-04-28T10:17:15.336Z,12.30
2019-04-28T10:19:45.634Z,12.40
2019-04-28T10:22:16.003Z,12.40
2019-04-28T10:24:46.276Z,12.40
2019-04-28T10:27:16.356Z,12.30
2019-04-28T10:29:46.680Z,12.30
2019-04-28T10:32:17.475Z,12.30
2019-04-28T10:34:54.674Z,12.30
2019-04-28T10:37:19.517Z,12.30
2019-04-28T10:39:51.342Z,12.10
2019-04-28T10:42:21.595Z,12.00
2019-04-28T10:44:53.041Z,12.10
2019-04-28T10:47:23.482Z,12.00
2019-04-28T10:49:54.476Z,11.90
2019-04-28T10:52:25.238Z,11.90
2019-04-28T10:54:56.013Z,11.90
2019-04-28T10:57:26.979Z,12.00
2019-04-28T10:59:57.164Z,12.00
2019-04-28T11:02:27.375Z,12.00
2019-04-28T11:05:08.226Z,12.00
2019-04-28T11:07:31.005Z,11.80
2019-04-28T11:10:05.700Z,11.90
2019-04-28T11:12:35.907Z,11.90
2019-04-28T11:15:08.994Z,11.80
2019-04-28T11:17:39.210Z,11.70
2019-04-28T11:20:09.390Z,11.70
2019-04-28T11:22:39.514Z,11.60
2019-04-28T11:25:09.733Z,11.70
2019-04-28T11:27:39.847Z,11.70
2019-04-28T11:30:10.312Z,11.70
2019-04-28T11:32:42.138Z,11.80
2019-04-28T11:35:21.930Z,11.60
2019-04-28T11:37:51.790Z,11.60
2019-04-28T11:40:22.094Z,11.50
2019-04-28T11:42:52.352Z,11.60
2019-04-28T11:45:23.432Z,11.60
2019-04-28T11:47:53.408Z,11.60
2019-04-28T11:50:23.639Z,11.60
2019-04-28T11:52:53.749Z,11.60
2019-04-28T11:55:24.005Z,11.50
2019-04-28T11:57:54.339Z,11.50
2019-04-28T12:00:26.049Z,11.50
2019-04-28T12:02:57.552Z,11.30
2019-04-28T12:05:34.778Z,11.20
2019-04-28T12:08:04.184Z,11.10
2019-04-28T12:10:50.703Z,11.00
2019-04-28T12:13:25.484Z,11.00
2019-04-28T12:15:57.232Z,11.00
2019-04-28T12:18:28.968Z,11.00
2019-04-28T12:20:59.221Z,10.90
2019-04-28T12:23:29.278Z,10.80
2019-04-28T12:25:59.482Z,10.70
2019-04-28T12:28:29.786Z,10.80
2019-04-28T12:30:59.790Z,10.80
2019-04-28T12:33:29.899Z,10.70
2019-04-28T12:35:59.883Z,10.70
2019-04-28T12:38:30.077Z,10.70
2019-04-28T12:41:00.021Z,10.60
2019-04-28T12:43:30.187Z,10.60
2019-04-28T12:46:00.165Z,10.70
2019-04-28T12:48:32.594Z,10.80
2019-04-28T12:51:02.013Z,10.70
2019-04-28T12:53:32.104Z,10.90
2019-04-28T12:56:02.413Z,11.00
2019-04-28T12:58:32.465Z,11.00
2019-04-28T13:01:05.011Z,11.00
2019-04-28T13:03:42.742Z,11.10
2019-04-28T13:06:14.474Z,11.00
2019-04-28T13:08:44.493Z,11.00
2019-04-28T13:11:14.717Z,11.00
2019-04-28T13:13:46.842Z,11.10
2019-04-28T13:16:16.726Z,11.20
2019-04-28T13:18:47.059Z,11.30
2019-04-28T13:21:17.266Z,11.20
2019-04-28T13:23:47.622Z,11.10
2019-04-28T13:26:17.960Z,11.20
2019-04-28T13:28:48.484Z,11.30
2019-04-28T13:31:18.651Z,11.40
2019-04-28T13:33:56.384Z,11.20
2019-04-28T13:36:20.585Z,11.20
2019-04-28T13:38:50.792Z,11.30
2019-04-28T13:41:21.036Z,11.20
2019-04-28T13:43:51.240Z,11.20
2019-04-28T13:46:23.108Z,11.30
2019-04-28T13:48:53.210Z,11.50
2019-04-28T13:51:23.958Z,11.70
2019-04-28T13:53:54.124Z,11.70
2019-04-28T13:56:24.224Z,11.80
2019-04-28T13:58:56.353Z,11.80
2019-04-28T14:01:28.039Z,11.80
2019-04-28T14:03:59.865Z,11.60
2019-04-28T14:06:31.715Z,11.50
2019-04-28T14:09:02.096Z,11.40
2019-04-28T14:11:32.275Z,11.40
2019-04-28T14:14:02.323Z,11.30
2019-04-28T14:16:32.781Z,11.20
2019-04-28T14:19:02.992Z,11.30
2019-04-28T14:21:33.201Z,11.30
2019-04-28T14:24:04.841Z,11.20
2019-04-28T14:26:35.121Z,11.10
2019-04-28T14:29:05.402Z,11.10
2019-04-28T14:31:36.126Z,11.20
2019-04-28T14:34:06.405Z,11.20
2019-04-28T14:36:42.370Z,11.20
2019-04-28T14:39:09.103Z,11.10
2019-04-28T14:41:42.251Z,11.10
2019-04-28T14:44:12.237Z,11.10
2019-04-28T14:46:44.271Z,11.00
2019-04-28T14:49:14.486Z,11.00
2019-04-28T14:51:44.889Z,11.10
2019-04-28T14:54:15.229Z,11.10
2019-04-28T14:56:46.970Z,11.10
2019-04-28T14:59:17.649Z,11.10
2019-04-28T15:02:10.693Z,11.00
2019-04-28T15:04:57.854Z,10.90
2019-04-28T15:07:41.962Z,11.00
2019-04-28T15:10:30.288Z,11.20
2019-04-28T15:13:00.389Z,11.20
2019-04-28T15:15:30.595Z,11.10
2019-04-28T15:18:00.970Z,11.10
2019-04-28T15:20:31.223Z,10.90
2019-04-28T15:23:01.190Z,11.00
2019-04-28T15:25:31.503Z,11.10
2019-04-28T15:28:01.937Z,11.30
2019-04-28T15:30:32.223Z,11.40
2019-04-28T15:33:02.519Z,11.40
2019-04-28T15:35:32.606Z,11.40
2019-04-28T15:38:05.016Z,11.40
2019-04-28T15:40:34.677Z,11.50
2019-04-28T15:43:04.934Z,11.60
2019-04-28T15:45:35.099Z,11.60
2019-04-28T15:48:05.504Z,11.60
2019-04-28T15:50:35.673Z,11.70
2019-04-28T15:53:05.919Z,11.60
2019-04-28T15:55:37.668Z,11.60
2019-04-28T15:58:27.158Z,11.70
2019-04-28T16:01:00.748Z,11.50
2019-04-28T16:03:32.510Z,11.60
2019-04-28T16:06:14.557Z,11.60
2019-04-28T16:08:44.834Z,11.80
2019-04-28T16:11:14.827Z,11.80
2019-04-28T16:13:45.075Z,11.80
2019-04-28T16:16:14.987Z,11.80
2019-04-28T16:18:44.920Z,11.80
2019-04-28T16:21:15.347Z,11.90
2019-04-28T16:23:45.551Z,11.90
2019-04-28T16:26:15.817Z,11.80
2019-04-28T16:28:46.016Z,11.80
2019-04-28T16:31:16.233Z,11.90
2019-04-28T16:33:46.529Z,11.90
2019-04-28T16:36:16.741Z,11.80
2019-04-28T16:38:47.251Z,11.80
2019-04-28T16:41:18.033Z,11.90
2019-04-28T16:43:50.141Z,11.90
2019-04-28T16:46:20.270Z,11.70
2019-04-28T16:48:50.504Z,11.70
2019-04-28T16:51:20.726Z,11.60
2019-04-28T16:53:50.925Z,11.70
2019-04-28T16:56:33.302Z,11.70
2019-04-28T16:59:05.419Z,11.60
2019-04-28T17:01:37.160Z,11.70
2019-04-28T17:04:07.475Z,11.70
2019-04-28T17:06:37.691Z,11.70
2019-04-28T17:09:08.645Z,11.70
2019-04-28T17:11:40.950Z,11.70
2019-04-28T17:14:11.529Z,11.60
2019-04-28T17:16:42.101Z,11.60
2019-04-28T17:19:12.608Z,11.60
2019-04-28T17:21:43.169Z,11.60
2019-04-28T17:24:13.349Z,11.60
2019-04-28T17:26:44.146Z,11.60
2019-04-28T17:29:14.458Z,11.60
2019-04-28T17:31:44.559Z,11.60
2019-04-28T17:34:14.850Z,11.60
2019-04-28T17:36:45.077Z,11.50
2019-04-28T17:39:16.843Z,11.50
2019-04-28T17:41:47.342Z,11.50
2019-04-28T17:44:18.040Z,11.40
2019-04-28T17:46:48.666Z,11.30
2019-04-28T17:49:20.770Z,11.30
2019-04-28T17:51:52.151Z,11.20
2019-04-28T17:54:22.504Z,11.10
2019-04-28T17:56:52.873Z,11.10
2019-04-28T17:59:23.159Z,11.10
2019-04-28T18:02:10.464Z,11.10
2019-04-28T18:04:42.434Z,11.00
2019-04-28T18:07:32.624Z,11.10
2019-04-28T18:10:03.230Z,11.10
2019-04-28T18:12:33.477Z,11.10
2019-04-28T18:15:09.060Z,11.10
2019-04-28T18:17:40.553Z,11.10
2019-04-28T18:20:12.245Z,11.00
2019-04-28T18:22:42.367Z,10.90
2019-04-28T18:25:12.489Z,11.00
2019-04-28T18:27:42.386Z,11.00
2019-04-28T18:30:14.511Z,11.00
2019-04-28T18:32:46.279Z,11.00
2019-04-28T18:35:33.022Z,10.90
2019-04-28T18:38:07.600Z,10.80
2019-04-28T18:40:39.546Z,10.70
2019-04-28T18:43:11.201Z,10.70
2019-04-28T18:45:41.432Z,10.60
2019-04-28T18:48:11.685Z,10.50
2019-04-28T18:50:42.890Z,10.50
2019-04-28T18:53:12.961Z,10.40
2019-04-28T18:55:43.285Z,10.30
2019-04-28T18:58:13.375Z,10.20
2019-04-28T19:00:45.164Z,10.20
2019-04-28T19:03:15.148Z,10.10
2019-04-28T19:05:46.908Z,10.10
2019-04-28T19:08:27.780Z,10.00
2019-04-28T19:10:59.820Z,9.90
2019-04-28T19:13:34.492Z,9.90
2019-04-28T19:16:06.611Z,9.90
2019-04-28T19:18:38.451Z,9.80
2019-04-28T19:21:08.490Z,9.80
2019-04-28T19:23:38.750Z,9.70
2019-04-28T19:26:08.829Z,9.80
2019-04-28T19:28:39.121Z,9.80
2019-04-28T19:31:09.148Z,9.70
2019-04-28T19:33:39.225Z,9.70
2019-04-28T19:36:09.387Z,9.70
2019-04-28T19:38:39.609Z,9.70
2019-04-28T19:41:09.884Z,9.70
2019-04-28T19:43:39.895Z,9.60
2019-04-28T19:46:11.653Z,9.70
2019-04-28T19:48:41.527Z,9.70
2019-04-28T19:51:11.706Z,9.60
2019-04-28T19:53:41.985Z,9.60
2019-04-28T19:56:30.018Z,9.50
2019-04-28T19:59:17.683Z,9.50
2019-04-28T20:01:48.234Z,9.40
2019-04-28T20:04:18.454Z,9.30
2019-04-28T20:06:49.399Z,9.30
2019-04-28T20:09:20.095Z,9.30
2019-04-28T20:11:51.078Z,9.30
2019-04-28T20:14:21.700Z,9.30
2019-04-28T20:16:52.148Z,9.30
2019-04-28T20:19:22.571Z,9.20
2019-04-28T20:21:53.984Z,9.10
2019-04-28T20:24:24.627Z,9.10
2019-04-28T20:26:55.369Z,9.10
2019-04-28T20:29:26.261Z,9.00
2019-04-28T20:31:57.000Z,9.00
2019-04-28T20:34:27.526Z,9.00
2019-04-28T20:37:11.509Z,9.00
2019-04-28T20:39:41.929Z,9.00
2019-04-28T20:42:16.465Z,9.00
2019-04-28T20:44:46.654Z,9.10
2019-04-28T20:47:16.875Z,9.00
2019-04-28T20:49:46.870Z,8.90
2019-04-28T20:52:17.176Z,9.00
2019-04-28T20:54:47.587Z,9.00
2019-04-28T20:57:17.956Z,8.90
2019-04-28T20:59:48.164Z,8.90
2019-04-28T21:02:18.485Z,8.90
2019-04-28T21:04:48.818Z,8.90
2019-04-28T21:07:19.129Z,8.90
2019-04-28T21:09:49.493Z,8.90
2019-04-28T21:12:19.567Z,8.90
2019-04-28T21:14:49.880Z,8.80
2019-04-28T21:17:20.232Z,8.80
2019-04-28T21:19:50.440Z,8.80
2019-04-28T21:22:20.569Z,8.80
2019-04-28T21:24:52.138Z,8.80
2019-04-28T21:27:22.320Z,8.80
2019-04-28T21:29:52.483Z,8.80
2019-04-28T21:32:22.408Z,8.80
2019-04-28T21:34:52.620Z,8.80
2019-04-28T21:37:22.649Z,8.90
2019-04-28T21:39:54.734Z,8.90
2019-04-28T21:42:26.474Z,8.80
2019-04-28T21:44:58.023Z,8.80
2019-04-28T21:47:29.759Z,8.80
2019-04-28T21:49:59.676Z,8.80
2019-04-28T21:52:30.179Z,8.70
2019-04-28T21:55:00.638Z,8.70
2019-04-28T21:57:30.965Z,8.60
2019-04-28T22:00:01.135Z,8.60
2019-04-28T22:02:31.244Z,8.50
2019-04-28T22:05:01.765Z,8.50
2019-04-28T22:07:32.269Z,8.60
2019-04-28T22:10:04.272Z,8.50
2019-04-28T22:12:34.691Z,8.50
2019-04-28T22:15:06.776Z,8.50
2019-04-28T22:17:36.764Z,8.50
2019-04-28T22:20:08.376Z,8.40
2019-04-28T22:22:38.808Z,8.40
2019-04-28T22:25:12.535Z,8.30
2019-04-28T22:27:42.499Z,8.30
2019-04-28T22:30:25.204Z,8.30
2019-04-28T22:32:55.413Z,8.20
2019-04-28T22:35:25.837Z,8.20
2019-04-28T22:37:56.217Z,8.20
2019-04-28T22:40:26.649Z,8.20
2019-04-28T22:42:57.070Z,8.20
2019-04-28T22:45:27.160Z,8.20
2019-04-28T22:47:57.636Z,8.20
2019-04-28T22:50:39.660Z,8.10
2019-04-28T22:53:09.927Z,8.10
2019-04-28T22:55:47.719Z,8.10
2019-04-28T22:58:31.811Z,8.20
2019-04-28T23:01:06.848Z,8.20
2019-04-28T23:03:47.438Z,8.20
2019-04-28T23:06:17.952Z,8.10
2019-04-28T23:08:48.204Z,8.20
2019-04-28T23:11:18.386Z,8.20
2019-04-28T23:13:48.542Z,8.20
2019-04-28T23:16:18.779Z,8.20
2019-04-28T23:18:49.276Z,8.30
2019-04-28T23:21:24.033Z,8.40
2019-04-28T23:23:54.341Z,8.40
2019-04-28T23:26:25.671Z,8.50
2019-04-28T23:28:55.668Z,8.50
2019-04-28T23:31:25.810Z,8.60
2019-04-28T23:33:56.050Z,8.60
2019-04-28T23:36:26.203Z,8.70
2019-04-28T23:38:56.409Z,8.70
2019-04-28T23:41:28.066Z,8.80
2019-04-28T23:43:58.193Z,8.90
2019-04-28T23:46:29.821Z,8.80
2019-04-28T23:49:00.161Z,8.90
2019-04-28T23:51:43.923Z,8.90
2019-04-28T23:54:14.009Z,8.90
2019-04-28T23:56:44.137Z,8.90
2019-04-28T23:59:14.300Z,8.90
